createdAt,value
2019-01-11T00:00:26.286Z,58.77
2019-01-11T00:03:28.316Z,58.80
2019-01-11T00:06:30.270Z,58.71
2019-01-11T00:09:32.193Z,58.82
2019-01-11T00:12:34.178Z,58.92
2019-01-11T00:15:36.226Z,58.96
2019-01-11T00:18:38.212Z,59.10
2019-01-11T00:21:41.636Z,59.17
2019-01-11T00:24:43.646Z,59.03
2019-01-11T00:27:45.537Z,58.98
2019-01-11T00:30:47.509Z,58.88
2019-01-11T00:33:49.409Z,58.91
2019-01-11T00:36:51.343Z,59.43
2019-01-11T00:39:53.286Z,59.90
2019-01-11T00:42:55.220Z,59.72
2019-01-11T00:45:57.216Z,59.99
2019-01-11T00:48:59.147Z,59.94
2019-01-11T00:52:01.346Z,59.68
2019-01-11T00:55:06.433Z,59.26
2019-01-11T00:58:08.326Z,59.26
2019-01-11T01:01:10.339Z,59.20
2019-01-11T01:04:12.786Z,59.04
2019-01-11T01:07:15.347Z,58.86
2019-01-11T01:10:19.204Z,58.92
2019-01-11T01:13:21.121Z,58.91
2019-01-11T01:16:23.212Z,58.98
2019-01-11T01:19:25.178Z,58.87
2019-01-11T01:22:27.072Z,58.62
2019-01-11T01:25:29.151Z,58.54
2019-01-11T01:28:31.083Z,58.35
2019-01-11T01:31:33.024Z,58.33
2019-01-11T01:34:34.902Z,58.41
2019-01-11T01:37:36.972Z,58.52
2019-01-11T01:40:38.905Z,58.60
2019-01-11T01:43:40.943Z,58.63
2019-01-11T01:46:42.861Z,58.74
2019-01-11T01:49:44.794Z,58.67
2019-01-11T01:52:46.734Z,58.67
2019-01-11T01:55:49.045Z,58.77
2019-01-11T01:58:51.054Z,58.78
2019-01-11T02:01:52.983Z,58.87
2019-01-11T02:04:55.011Z,58.89
2019-01-11T02:07:57.002Z,58.91
2019-01-11T02:10:58.933Z,58.83
2019-01-11T02:14:00.927Z,59.03
2019-01-11T02:17:03.467Z,58.85
2019-01-11T02:20:11.474Z,58.84
2019-01-11T02:23:13.350Z,58.87
2019-01-11T02:26:15.323Z,58.98
2019-01-11T02:29:17.210Z,59.03
2019-01-11T02:32:19.208Z,59.11
2019-01-11T02:35:21.056Z,59.08
2019-01-11T02:38:22.956Z,59.05
2019-01-11T02:41:24.879Z,58.96
2019-01-11T02:44:26.914Z,59.13
2019-01-11T02:47:28.907Z,59.22
2019-01-11T02:50:30.909Z,59.13
2019-01-11T02:53:33.310Z,59.09
2019-01-11T02:56:35.301Z,59.21
2019-01-11T02:59:37.288Z,59.04
2019-01-11T03:02:39.353Z,59.07
2019-01-11T03:05:41.505Z,59.17
2019-01-11T03:08:43.512Z,59.24
2019-01-11T03:11:45.511Z,59.29
2019-01-11T03:14:49.096Z,59.27
2019-01-11T03:17:51.150Z,59.31
2019-01-11T03:20:53.113Z,59.26
2019-01-11T03:23:55.011Z,59.28
2019-01-11T03:26:56.990Z,59.30
2019-01-11T03:29:58.948Z,59.31
2019-01-11T03:33:00.932Z,59.27
2019-01-11T03:36:03.584Z,59.16
2019-01-11T03:39:05.786Z,59.05
2019-01-11T03:42:09.495Z,58.92
2019-01-11T03:45:14.467Z,58.83
2019-01-11T03:48:16.451Z,58.83
2019-01-11T03:51:18.427Z,58.82
2019-01-11T03:54:20.392Z,58.74
2019-01-11T03:57:22.501Z,58.71
2019-01-11T04:00:24.386Z,58.65
2019-01-11T04:03:26.340Z,58.68
2019-01-11T04:06:28.882Z,58.73
2019-01-11T04:09:30.857Z,58.76
2019-01-11T04:12:32.828Z,58.80
2019-01-11T04:15:35.749Z,58.94
2019-01-11T04:18:40.287Z,58.97
2019-01-11T04:21:44.483Z,58.97
2019-01-11T04:24:48.326Z,59.05
2019-01-11T04:27:51.076Z,59.02
2019-01-11T04:30:53.021Z,58.93
2019-01-11T04:33:55.034Z,58.92
2019-01-11T04:36:57.029Z,58.86
2019-01-11T04:39:59.009Z,58.79
2019-01-11T04:43:00.927Z,58.73
2019-01-11T04:46:03.012Z,58.79
2019-01-11T04:49:05.036Z,58.78
2019-01-11T04:52:07.024Z,58.76
2019-01-11T04:55:09.169Z,58.83
2019-01-11T04:58:11.167Z,58.81
2019-01-11T05:01:13.128Z,58.84
2019-01-11T05:04:15.469Z,58.80
2019-01-11T05:07:18.815Z,58.83
2019-01-11T05:10:20.787Z,58.80
2019-01-11T05:13:30.296Z,58.69
2019-01-11T05:16:39.310Z,58.54
2019-01-11T05:19:36.305Z,58.55
2019-01-11T05:22:38.296Z,58.63
2019-01-11T05:25:40.230Z,58.58
2019-01-11T05:28:42.188Z,58.66
2019-01-11T05:31:45.953Z,58.55
2019-01-11T05:34:47.940Z,58.53
2019-01-11T05:37:49.850Z,58.58
2019-01-11T05:40:51.839Z,58.64
2019-01-11T05:43:53.747Z,58.57
2019-01-11T05:46:55.703Z,58.52
2019-01-11T05:49:57.672Z,58.42
2019-01-11T05:52:59.640Z,58.38
2019-01-11T05:56:01.925Z,58.40
2019-01-11T05:59:04.641Z,58.39
2019-01-11T06:02:06.578Z,58.49
2019-01-11T06:05:10.400Z,58.55
2019-01-11T06:08:19.752Z,58.46
2019-01-11T06:11:21.770Z,58.38
2019-01-11T06:14:23.677Z,58.39
2019-01-11T06:17:25.588Z,58.40
2019-01-11T06:20:30.357Z,58.43
2019-01-11T06:23:31.618Z,58.40
2019-01-11T06:26:34.848Z,58.46
2019-01-11T06:29:36.816Z,58.64
2019-01-11T06:32:38.759Z,58.92
2019-01-11T06:35:41.568Z,59.07
2019-01-11T06:38:43.539Z,59.03
2019-01-11T06:41:47.385Z,59.03
2019-01-11T06:44:49.345Z,59.16
2019-01-11T06:47:51.330Z,59.27
2019-01-11T06:50:53.362Z,59.34
2019-01-11T06:53:55.413Z,59.44
2019-01-11T06:56:57.300Z,59.53
2019-01-11T06:59:59.304Z,59.55
2019-01-11T07:03:01.266Z,59.53
2019-01-11T07:06:03.291Z,59.54
2019-01-11T07:09:06.531Z,59.56
2019-01-11T07:12:08.438Z,59.65
2019-01-11T07:15:12.530Z,59.61
2019-01-11T07:18:14.890Z,59.47
2019-01-11T07:21:16.983Z,59.34
2019-01-11T07:24:18.956Z,59.47
2019-01-11T07:27:20.869Z,59.24
2019-01-11T07:30:25.104Z,58.90
2019-01-11T07:33:27.155Z,58.38
2019-01-11T07:36:29.753Z,57.98
2019-01-11T07:39:31.664Z,57.58
2019-01-11T07:42:33.665Z,57.27
2019-01-11T07:45:35.614Z,57.07
2019-01-11T07:48:37.594Z,56.76
2019-01-11T07:51:39.660Z,56.54
2019-01-11T07:54:41.649Z,56.44
2019-01-11T07:57:43.643Z,55.99
2019-01-11T08:00:45.608Z,55.19
2019-01-11T08:03:47.537Z,54.16
2019-01-11T08:06:50.594Z,53.56
2019-01-11T08:09:53.183Z,52.86
2019-01-11T08:12:55.247Z,53.23
2019-01-11T08:15:57.178Z,53.65
2019-01-11T08:18:59.204Z,54.17
2019-01-11T08:22:01.271Z,54.15
2019-01-11T08:25:05.503Z,54.39
2019-01-11T08:28:07.551Z,53.88
2019-01-11T08:31:09.559Z,51.85
2019-01-11T08:34:11.510Z,48.63
2019-01-11T08:37:14.788Z,46.18
2019-01-11T08:40:16.747Z,44.82
2019-01-11T08:43:18.714Z,45.93
2019-01-11T08:46:20.686Z,46.98
2019-01-11T08:49:22.673Z,47.79
2019-01-11T08:52:24.659Z,48.58
2019-01-11T08:55:28.496Z,48.87
2019-01-11T08:58:30.494Z,49.31
2019-01-11T09:01:32.454Z,49.54
2019-01-11T09:04:34.393Z,49.71
2019-01-11T09:07:36.388Z,49.52
2019-01-11T09:10:38.401Z,49.53
2019-01-11T09:13:40.423Z,49.53
2019-01-11T09:16:43.470Z,49.50
2019-01-11T09:19:45.424Z,48.41
2019-01-11T09:22:47.524Z,42.52
2019-01-11T09:25:49.562Z,40.41
2019-01-11T09:28:51.558Z,40.51
2019-01-11T09:31:53.568Z,41.75
2019-01-11T09:34:55.517Z,43.42
2019-01-11T09:37:58.061Z,44.91
2019-01-11T09:41:00.004Z,45.77
2019-01-11T09:44:01.993Z,46.17
2019-01-11T09:47:03.902Z,46.54
2019-01-11T09:50:08.188Z,46.71
2019-01-11T09:53:10.204Z,46.52
2019-01-11T09:56:12.202Z,46.80
2019-01-11T09:59:14.125Z,46.84
2019-01-11T10:02:17.914Z,47.13
2019-01-11T10:05:19.825Z,47.42
2019-01-11T10:08:21.789Z,47.82
2019-01-11T10:11:24.081Z,47.85
2019-01-11T10:14:26.113Z,47.82
2019-01-11T10:17:28.124Z,47.66
2019-01-11T10:20:30.597Z,47.65
2019-01-11T10:23:32.706Z,47.23
2019-01-11T10:26:34.726Z,47.09
2019-01-11T10:29:36.674Z,46.99
2019-01-11T10:32:38.697Z,46.72
2019-01-11T10:35:40.691Z,46.67
2019-01-11T10:38:42.698Z,46.44
2019-01-11T10:41:44.641Z,46.41
2019-01-11T10:44:46.595Z,46.66
2019-01-11T10:47:51.558Z,46.86
2019-01-11T10:50:53.535Z,47.30
2019-01-11T10:53:56.589Z,47.48
2019-01-11T10:56:58.594Z,47.82
2019-01-11T11:00:00.762Z,48.02
2019-01-11T11:03:02.924Z,48.26
2019-01-11T11:06:04.920Z,48.67
2019-01-11T11:09:06.858Z,48.47
2019-01-11T11:12:08.961Z,48.50
2019-01-11T11:15:13.552Z,48.32
2019-01-11T11:18:15.442Z,48.11
2019-01-11T11:21:18.026Z,47.73
2019-01-11T11:24:20.120Z,47.62
2019-01-11T11:27:22.102Z,46.99
2019-01-11T11:30:24.961Z,47.12
2019-01-11T11:33:26.911Z,46.93
2019-01-11T11:36:28.879Z,46.82
2019-01-11T11:39:30.980Z,46.46
2019-01-11T11:42:32.878Z,46.45
2019-01-11T11:45:34.853Z,46.51
2019-01-11T11:48:36.789Z,46.75
2019-01-11T11:51:41.491Z,46.81
2019-01-11T11:54:42.658Z,47.00
2019-01-11T11:57:44.636Z,46.76
2019-01-11T12:00:46.669Z,46.60
2019-01-11T12:03:48.672Z,46.52
2019-01-11T12:06:50.637Z,46.25
2019-01-11T12:09:52.582Z,46.26
2019-01-11T12:12:55.075Z,46.15
2019-01-11T12:15:57.109Z,46.22
2019-01-11T12:18:59.072Z,46.21
2019-01-11T12:22:01.749Z,46.15
2019-01-11T12:25:06.063Z,46.28
2019-01-11T12:28:08.071Z,46.57
2019-01-11T12:31:10.032Z,46.63
2019-01-11T12:34:12.094Z,46.62
2019-01-11T12:37:13.992Z,46.61
2019-01-11T12:40:16.556Z,46.85
2019-01-11T12:43:18.514Z,46.73
2019-01-11T12:46:20.569Z,46.99
2019-01-11T12:49:22.507Z,47.17
2019-01-11T12:52:24.506Z,47.33
2019-01-11T12:55:26.545Z,47.27
2019-01-11T12:58:28.511Z,47.45
2019-01-11T13:01:30.438Z,47.60
2019-01-11T13:04:32.370Z,47.33
2019-01-11T13:07:35.273Z,47.45
2019-01-11T13:10:37.211Z,47.58
2019-01-11T13:13:39.204Z,47.83
2019-01-11T13:16:41.245Z,47.77
2019-01-11T13:19:43.251Z,47.77
2019-01-11T13:22:45.422Z,47.88
2019-01-11T13:25:47.514Z,47.87
2019-01-11T13:28:49.520Z,47.90
2019-01-11T13:31:51.474Z,47.85
2019-01-11T13:34:53.587Z,47.97
2019-01-11T13:37:55.569Z,48.11
2019-01-11T13:40:57.564Z,48.29
2019-01-11T13:43:59.486Z,48.20
2019-01-11T13:47:01.466Z,48.09
2019-01-11T13:50:06.958Z,48.08
2019-01-11T13:53:09.014Z,48.42
2019-01-11T13:56:11.081Z,48.52
2019-01-11T13:59:13.214Z,48.45
2019-01-11T14:02:15.315Z,48.73
2019-01-11T14:05:17.360Z,48.73
2019-01-11T14:08:19.396Z,48.81
2019-01-11T14:11:21.382Z,48.99
2019-01-11T14:14:23.309Z,49.06
2019-01-11T14:17:25.318Z,49.23
2019-01-11T14:20:27.255Z,49.34
2019-01-11T14:23:29.966Z,49.56
2019-01-11T14:26:32.017Z,49.76
2019-01-11T14:29:34.203Z,50.09
2019-01-11T14:32:36.256Z,50.31
2019-01-11T14:35:40.117Z,50.50
2019-01-11T14:38:42.136Z,50.81
2019-01-11T14:41:44.722Z,50.96
2019-01-11T14:44:46.673Z,50.84
2019-01-11T14:47:49.037Z,50.98
2019-01-11T14:50:50.962Z,51.10
2019-01-11T14:53:52.948Z,51.48
2019-01-11T14:56:54.967Z,51.81
2019-01-11T14:59:57.004Z,52.34
2019-01-11T15:02:58.950Z,52.34
2019-01-11T15:06:01.046Z,52.39
2019-01-11T15:09:05.838Z,52.64
2019-01-11T15:12:07.832Z,52.93
2019-01-11T15:15:10.540Z,53.18
2019-01-11T15:18:12.641Z,53.36
2019-01-11T15:21:14.593Z,53.55
2019-01-11T15:24:18.130Z,53.93
2019-01-11T15:27:20.361Z,54.13
2019-01-11T15:30:22.327Z,54.58
2019-01-11T15:33:24.292Z,55.03
2019-01-11T15:36:26.282Z,55.07
2019-01-11T15:39:28.359Z,55.51
2019-01-11T15:42:30.517Z,55.74
2019-01-11T15:45:32.597Z,56.18
2019-01-11T15:48:42.709Z,56.51
2019-01-11T15:51:44.671Z,56.85
2019-01-11T15:54:46.706Z,57.25
2019-01-11T15:57:48.714Z,57.73
2019-01-11T16:00:50.722Z,58.08
2019-01-11T16:03:52.873Z,58.98
2019-01-11T16:06:55.021Z,58.91
2019-01-11T16:09:58.257Z,58.60
2019-01-11T16:13:02.897Z,59.04
2019-01-11T16:16:07.920Z,61.60
2019-01-11T16:19:09.923Z,61.76
2019-01-11T16:22:11.880Z,59.58
2019-01-11T16:25:16.085Z,59.29
2019-01-11T16:28:18.195Z,59.08
2019-01-11T16:31:20.193Z,59.33
2019-01-11T16:34:22.091Z,59.59
2019-01-11T16:37:24.040Z,59.65
2019-01-11T16:40:25.942Z,59.66
2019-01-11T16:43:28.047Z,59.66
2019-01-11T16:46:29.955Z,59.69
2019-01-11T16:49:31.949Z,59.60
2019-01-11T16:52:33.833Z,59.82
2019-01-11T16:55:35.810Z,60.02
2019-01-11T16:58:37.763Z,60.43
2019-01-11T17:01:39.947Z,60.55
2019-01-11T17:04:42.011Z,60.43
2019-01-11T17:07:44.019Z,60.31
2019-01-11T17:10:45.932Z,60.33
2019-01-11T17:13:47.916Z,60.28
2019-01-11T17:16:49.852Z,60.32
2019-01-11T17:19:51.809Z,60.32
2019-01-11T17:22:53.775Z,60.37
2019-01-11T17:25:55.982Z,71.27
2019-01-11T17:28:58.003Z,63.74
2019-01-11T17:32:00.015Z,61.28
2019-01-11T17:35:01.907Z,61.35
2019-01-11T17:38:03.994Z,61.62
2019-01-11T17:41:06.149Z,61.29
2019-01-11T17:44:08.084Z,61.36
2019-01-11T17:47:10.027Z,61.49
2019-01-11T17:50:14.389Z,61.56
2019-01-11T17:53:16.275Z,61.83
2019-01-11T17:56:18.270Z,61.83
2019-01-11T17:59:20.268Z,61.79
2019-01-11T18:02:23.049Z,61.75
2019-01-11T18:05:24.984Z,61.84
2019-01-11T18:08:26.985Z,61.98
2019-01-11T18:11:28.945Z,62.01
2019-01-11T18:14:30.957Z,62.04
2019-01-11T18:17:32.876Z,62.22
2019-01-11T18:20:36.744Z,62.25
2019-01-11T18:23:39.032Z,62.27
2019-01-11T18:26:41.105Z,62.33
2019-01-11T18:29:43.313Z,62.63
2019-01-11T18:32:48.014Z,62.62
2019-01-11T18:35:49.920Z,62.88
2019-01-11T18:38:51.912Z,62.57
2019-01-11T18:41:53.876Z,62.59
2019-01-11T18:44:56.917Z,62.39
2019-01-11T18:47:58.833Z,62.37
2019-01-11T18:51:00.854Z,62.37
2019-01-11T18:54:03.131Z,62.27
2019-01-11T18:57:06.075Z,62.28
2019-01-11T19:00:23.076Z,62.50
2019-01-11T19:03:25.100Z,62.82
2019-01-11T19:06:27.135Z,62.94
2019-01-11T19:09:29.684Z,62.93
2019-01-11T19:12:31.609Z,62.90
2019-01-11T19:15:34.797Z,62.65
2019-01-11T19:18:36.719Z,62.53
2019-01-11T19:21:39.641Z,62.49
2019-01-11T19:24:44.084Z,62.67
2019-01-11T19:27:46.584Z,62.89
2019-01-11T19:30:48.954Z,62.90
2019-01-11T19:33:50.965Z,62.94
2019-01-11T19:36:54.429Z,63.19
2019-01-11T19:39:56.810Z,63.31
2019-01-11T19:42:59.048Z,63.47
2019-01-11T19:46:01.490Z,63.28
2019-01-11T19:49:03.672Z,63.54
2019-01-11T19:52:07.059Z,63.65
2019-01-11T19:55:10.622Z,63.98
2019-01-11T19:58:15.020Z,64.45
2019-01-11T20:01:17.376Z,64.66
2019-01-11T20:04:21.285Z,64.69
2019-01-11T20:07:25.044Z,64.88
2019-01-11T20:10:30.864Z,64.92
2019-01-11T20:13:33.140Z,64.95
2019-01-11T20:16:35.797Z,65.10
2019-01-11T20:19:38.697Z,65.14
2019-01-11T20:22:45.325Z,65.21
2019-01-11T20:25:47.740Z,65.02
2019-01-11T20:28:49.887Z,64.84
2019-01-11T20:31:52.271Z,64.65
2019-01-11T20:34:56.086Z,64.65
2019-01-11T20:37:58.012Z,64.61
2019-01-11T20:41:00.053Z,64.39
2019-01-11T20:44:01.942Z,64.39
2019-01-11T20:47:05.116Z,64.41
2019-01-11T20:50:10.066Z,64.41
2019-01-11T20:53:11.982Z,64.17
2019-01-11T20:56:13.917Z,64.08
2019-01-11T20:59:16.252Z,63.94
2019-01-11T21:02:18.239Z,63.76
2019-01-11T21:05:20.773Z,63.43
2019-01-11T21:08:25.883Z,63.48
2019-01-11T21:11:29.656Z,63.29
2019-01-11T21:14:31.568Z,63.36
2019-01-11T21:17:37.605Z,63.27
2019-01-11T21:20:39.872Z,63.15
2019-01-11T21:23:48.690Z,63.23
2019-01-11T21:26:48.473Z,63.08
2019-01-11T21:29:51.923Z,63.08
2019-01-11T21:32:54.708Z,62.95
2019-01-11T21:35:58.483Z,62.90
2019-01-11T21:39:00.701Z,62.90
2019-01-11T21:42:02.750Z,62.96
2019-01-11T21:45:08.792Z,62.91
2019-01-11T21:48:10.917Z,62.99
2019-01-11T21:51:12.877Z,63.15
2019-01-11T21:54:14.917Z,63.13
2019-01-11T21:57:16.964Z,63.22
2019-01-11T22:00:25.359Z,63.35
2019-01-11T22:03:27.318Z,63.47
2019-01-11T22:06:29.291Z,63.68
2019-01-11T22:09:31.190Z,63.63
2019-01-11T22:12:33.113Z,63.53
2019-01-11T22:15:35.071Z,63.59
2019-01-11T22:18:37.278Z,63.63
2019-01-11T22:21:39.199Z,63.57
2019-01-11T22:24:41.479Z,63.39
2019-01-11T22:27:43.737Z,63.29
2019-01-11T22:30:46.106Z,63.19
2019-01-11T22:33:48.240Z,63.15
2019-01-11T22:36:50.344Z,63.13
2019-01-11T22:39:52.897Z,63.25
2019-01-11T22:42:56.182Z,63.42
2019-01-11T22:45:58.108Z,63.38
2019-01-11T22:49:00.070Z,63.53
2019-01-11T22:52:02.074Z,63.47
2019-01-11T22:55:06.125Z,63.50
2019-01-11T22:58:08.979Z,63.35
2019-01-11T23:01:17.800Z,63.44
2019-01-11T23:04:21.309Z,63.52
2019-01-11T23:07:26.631Z,63.66
2019-01-11T23:10:38.879Z,63.78
2019-01-11T23:13:40.878Z,63.89
2019-01-11T23:16:42.936Z,63.75
2019-01-11T23:19:45.054Z,63.79
2019-01-11T23:22:47.013Z,63.71
2019-01-11T23:25:49.101Z,63.47
2019-01-11T23:28:51.143Z,63.33
2019-01-11T23:31:53.163Z,63.37
2019-01-11T23:34:55.536Z,63.29
2019-01-11T23:37:58.744Z,63.51
2019-01-11T23:41:00.651Z,63.60
2019-01-11T23:44:02.760Z,63.71
2019-01-11T23:47:04.809Z,63.95
2019-01-11T23:50:09.871Z,63.99
2019-01-11T23:53:11.790Z,63.95
2019-01-11T23:56:13.792Z,63.96
2019-01-11T23:59:15.746Z,64.14
